Terminal Aerodrome Forecast
Issued by NWS

Home | Current Version | Previous Version | Text Only | Print | Product List | Glossary On
Versions: 1 2 3 4 5 6 7 8 9 10 11 12 13 14 15 16 17 18 19 20 21 22 23 24 25 26 27 28 29 30 31 32
000
FTUS42 KKEY 230600 RRA
TAFMTH
TAF
KMTH 230600Z 2306/2406 VRB03KT P6SM VCTS SCT020CB SCT040 BKN060
      TEMPO 2306/2307 VRB10G20KT 2SM TSRA BR BKN015CB BKN040
     FM230700 VRB05KT P6SM VCSH SCT025 SCT060 BKN100=

USA.gov is the U.S. government's official web portal to all federal, state and local government web resources and services.